Time;durP1;ratioP1;P1;durP2;ratioP2;P2;SDS_P1;SDS_P2;PMS_P1;PMS_P2;Temp;Humidity;BMP_temperature;BMP_pressure;BME280_temperature;BME280_humidity;BME280_pressure;Samples;Min_cycle;Max_cycle;Signal;HPM_P1;HPM_P2
2021/05/30 00:01:54;;;;;;;2.28;1.77;;;15.80;52.80;;;;;;5016137;28;20038;-66
2021/05/30 00:04:21;;;;;;;2.60;2.00;;;15.90;52.80;;;;;;5012628;28;20490;-66
2021/05/30 00:06:47;;;;;;;3.85;2.13;;;15.90;52.80;;;;;;5012827;28;20044;-67
2021/05/30 00:09:14;;;;;;;3.78;2.30;;;15.90;52.70;;;;;;5030338;28;20117;-66
2021/05/30 00:11:40;;;;;;;5.07;2.30;;;15.90;52.90;;;;;;5032308;28;20071;-66
2021/05/30 00:14:07;;;;;;;4.22;3.08;;;15.80;52.90;;;;;;5030981;28;20028;-66
2021/05/30 00:16:33;;;;;;;4.15;3.20;;;15.80;53.40;;;;;;5032248;28;20029;-66
2021/05/30 00:19:00;;;;;;;4.18;2.55;;;15.80;53.90;;;;;;5032318;28;20018;-66
2021/05/30 00:21:26;;;;;;;4.78;2.72;;;15.70;54.10;;;;;;5035844;28;20440;-66
2021/05/30 00:23:52;;;;;;;4.03;2.20;;;15.70;54.10;;;;;;5032212;28;20079;-67
2021/05/30 00:26:18;;;;;;;3.17;2.10;;;15.70;53.80;;;;;;5034477;28;20104;-66
2021/05/30 00:28:44;;;;;;;5.78;1.77;;;15.60;53.80;;;;;;5035708;28;20025;-66
2021/05/30 00:31:09;;;;;;;6.13;2.58;;;15.60;53.80;;;;;;5029869;28;20427;-66
2021/05/30 00:33:35;;;;;;;2.42;1.95;;;15.60;54.10;;;;;;5021186;28;20025;-67
2021/05/30 00:36:01;;;;;;;3.45;2.40;;;15.60;54.30;;;;;;5035596;28;20099;-67
2021/05/30 00:38:26;;;;;;;2.17;1.98;;;15.60;54.60;;;;;;5035395;28;20038;-67
2021/05/30 00:40:53;;;;;;;2.53;1.52;;;15.60;54.50;;;;;;5035564;28;20021;-67
2021/05/30 00:43:18;;;;;;;3.10;2.30;;;15.50;54.30;;;;;;5033311;28;20040;-67
2021/05/30 00:45:46;;;;;;;2.35;1.73;;;15.50;54.40;;;;;;5035384;28;20396;-66
2021/05/30 00:48:12;;;;;;;2.65;1.80;;;15.50;54.30;;;;;;5035387;28;20029;-67
2021/05/30 00:50:37;;;;;;;4.43;2.03;;;15.50;54.10;;;;;;5033628;28;20109;-67
2021/05/30 00:53:05;;;;;;;2.90;2.05;;;15.60;54.10;;;;;;5027405;28;20404;-67
2021/05/30 00:55:31;;;;;;;6.43;1.80;;;15.60;54.00;;;;;;5015363;28;20109;-66
2021/05/30 00:57:57;;;;;;;3.67;1.90;;;15.60;53.90;;;;;;5015309;28;20109;-66
2021/05/30 01:00:23;;;;;;;4.90;3.50;;;15.60;53.80;;;;;;5027814;28;20030;-66
2021/05/30 01:02:49;;;;;;;3.08;2.38;;;15.50;53.70;;;;;;5035104;28;20022;-66
2021/05/30 01:05:15;;;;;;;4.35;2.28;;;15.60;53.50;;;;;;5035096;28;20467;-66
2021/05/30 01:07:42;;;;;;;4.72;3.35;;;15.50;53.60;;;;;;5034928;28;20394;-66
2021/05/30 01:10:29;;;;;;;4.85;3.40;;;15.50;53.70;;;;;;5029538;28;20502;-66
2021/05/30 01:12:58;;;;;;;3.28;2.30;;;15.50;53.80;;;;;;5015181;28;20033;-67
2021/05/30 01:15:26;;;;;;;3.17;2.05;;;15.50;53.70;;;;;;5015282;28;20030;-66
2021/05/30 01:17:54;;;;;;;6.80;2.85;;;15.40;53.60;;;;;;5036945;28;20034;-66
2021/05/30 01:20:21;;;;;;;4.00;2.53;;;15.40;54.10;;;;;;5015012;28;20014;-66
2021/05/30 01:22:48;;;;;;;4.80;2.40;;;15.40;54.30;;;;;;5017367;28;20053;-66
2021/05/30 01:25:22;;;;;;;3.42;1.90;;;15.30;54.30;;;;;;5020754;28;20037;-66
2021/05/30 01:27:50;;;;;;;2.70;1.90;;;15.20;54.20;;;;;;5014837;28;20387;-67
2021/05/30 01:30:18;;;;;;;2.15;1.70;;;15.30;54.20;;;;;;5014784;28;20022;-65
2021/05/30 01:32:45;;;;;;;3.15;1.73;;;15.30;54.20;;;;;;5014146;28;20021;-66
2021/05/30 01:35:13;;;;;;;2.47;1.95;;;15.30;54.10;;;;;;5022710;28;20545;-66
2021/05/30 01:37:39;;;;;;;2.85;1.75;;;15.30;54.00;;;;;;5031430;28;20033;-67
2021/05/30 01:40:06;;;;;;;2.50;1.88;;;15.30;53.90;;;;;;5034004;28;20140;-67
2021/05/30 01:42:32;;;;;;;2.38;1.88;;;15.30;53.90;;;;;;5034521;28;20479;-66
2021/05/30 01:44:59;;;;;;;2.38;1.73;;;15.30;53.90;;;;;;5034535;28;20037;-67
2021/05/30 01:47:25;;;;;;;2.45;1.80;;;15.30;53.80;;;;;;5034492;28;20030;-67
2021/05/30 01:49:51;;;;;;;4.88;1.77;;;15.30;53.80;;;;;;5032651;28;20050;-67
2021/05/30 01:52:16;;;;;;;6.95;2.00;;;15.20;53.90;;;;;;5034172;28;20025;-66
2021/05/30 01:54:45;;;;;;;3.30;2.25;;;15.20;54.10;;;;;;5015060;28;20041;-66
2021/05/30 01:57:12;;;;;;;3.35;1.90;;;15.20;54.30;;;;;;5014404;28;20113;-67
2021/05/30 01:59:38;;;;;;;3.25;2.30;;;15.30;54.40;;;;;;5014469;28;20373;-66
2021/05/30 02:02:06;;;;;;;3.47;2.30;;;15.20;54.70;;;;;;5014400;28;20072;-66
2021/05/30 02:04:38;;;;;;;5.15;2.10;;;15.20;54.80;;;;;;5014300;28;20022;-68
2021/05/30 02:07:04;;;;;;;3.15;2.03;;;15.20;55.00;;;;;;5014309;28;20101;-67
2021/05/30 02:09:30;;;;;;;3.13;1.90;;;15.20;55.00;;;;;;5017939;28;20057;-66
2021/05/30 02:11:57;;;;;;;3.15;1.70;;;15.20;55.10;;;;;;5014276;28;20056;-67
2021/05/30 02:14:23;;;;;;;3.28;2.00;;;15.20;55.00;;;;;;5014268;28;20029;-66
2021/05/30 02:16:49;;;;;;;2.92;2.13;;;15.20;54.80;;;;;;5013994;28;20030;-66
2021/05/30 02:19:15;;;;;;;3.47;2.65;;;15.10;54.70;;;;;;5012864;28;20022;-66
2021/05/30 02:21:46;;;;;;;3.53;2.35;;;15.10;54.60;;;;;;5013975;28;20391;-66
2021/05/30 02:24:14;;;;;;;4.40;2.47;;;15.10;54.70;;;;;;5013116;28;20029;-66
2021/05/30 02:26:40;;;;;;;1.95;1.75;;;15.10;54.70;;;;;;5013935;28;20495;-66
2021/05/30 02:29:06;;;;;;;2.92;1.90;;;15.10;54.40;;;;;;5013928;28;20030;-66
2021/05/30 02:31:32;;;;;;;3.20;2.10;;;15.10;54.40;;;;;;5013870;28;20022;-66
2021/05/30 02:33:58;;;;;;;2.33;1.85;;;15.00;54.60;;;;;;5013670;28;20361;-66
2021/05/30 02:36:25;;;;;;;4.53;2.10;;;15.00;54.40;;;;;;5013724;28;20029;-66
2021/05/30 02:38:50;;;;;;;4.45;2.72;;;15.00;54.60;;;;;;5013810;28;20029;-66
2021/05/30 02:41:16;;;;;;;4.07;2.40;;;15.00;54.70;;;;;;5013678;28;20096;-67
2021/05/30 02:43:42;;;;;;;2.95;2.20;;;15.00;54.80;;;;;;5012816;28;20030;-66
2021/05/30 02:46:08;;;;;;;3.60;2.55;;;15.00;54.80;;;;;;5027985;28;20053;-66
2021/05/30 02:48:36;;;;;;;3.72;1.92;;;15.00;55.40;;;;;;5032040;28;20116;-67
2021/05/30 02:51:05;;;;;;;3.70;2.90;;;15.00;54.80;;;;;;5031241;28;20021;-67
2021/05/30 02:53:32;;;;;;;5.03;2.65;;;15.00;55.00;;;;;;5019146;28;20117;-66
2021/05/30 02:56:00;;;;;;;2.90;2.33;;;15.00;55.10;;;;;;5013541;28;20026;-66
2021/05/30 02:58:27;;;;;;;4.95;2.50;;;15.00;55.10;;;;;;5013445;28;20435;-66
2021/05/30 03:00:53;;;;;;;5.60;2.17;;;14.90;55.20;;;;;;5013481;28;20476;-67
2021/05/30 03:03:19;;;;;;;4.07;2.10;;;15.00;55.30;;;;;;5013232;28;20033;-67
2021/05/30 03:05:45;;;;;;;3.53;2.47;;;15.00;55.50;;;;;;5013388;28;20101;-66
2021/05/30 03:08:11;;;;;;;3.15;2.40;;;15.00;55.50;;;;;;5013471;28;20084;-67
2021/05/30 03:10:38;;;;;;;12.93;2.42;;;15.00;55.70;;;;;;5013299;28;20058;-66
2021/05/30 03:13:04;;;;;;;5.82;2.80;;;15.00;55.70;;;;;;5013288;28;20476;-66
2021/05/30 03:15:30;;;;;;;3.45;2.20;;;15.00;55.90;;;;;;5013286;28;20022;-68
2021/05/30 03:17:56;;;;;;;4.25;2.50;;;15.00;56.00;;;;;;5013163;28;20053;-66
2021/05/30 03:20:23;;;;;;;3.83;2.70;;;14.90;56.10;;;;;;5013312;28;20460;-66
2021/05/30 03:22:49;;;;;;;7.03;2.70;;;14.90;56.30;;;;;;5013385;28;20072;-66
2021/05/30 03:25:15;;;;;;;3.33;2.55;;;14.90;56.30;;;;;;5012938;28;20058;-66
2021/05/30 03:27:42;;;;;;;9.52;2.65;;;14.90;56.50;;;;;;5011898;28;20060;-66
2021/05/30 03:30:09;;;;;;;5.22;2.90;;;14.90;56.60;;;;;;5013052;28;20420;-66
2021/05/30 03:32:35;;;;;;;3.28;2.47;;;14.80;56.80;;;;;;5013034;28;20033;-66
2021/05/30 03:35:01;;;;;;;6.30;3.38;;;14.80;57.00;;;;;;5013119;28;20080;-66
2021/05/30 03:37:27;;;;;;;4.35;2.92;;;14.80;57.20;;;;;;5013047;28;20499;-66
2021/05/30 03:39:57;;;;;;;4.88;3.03;;;14.80;57.40;;;;;;5013092;28;20054;-67
2021/05/30 03:42:27;;;;;;;2.53;2.15;;;14.70;57.50;;;;;;5013071;28;20498;-67
2021/05/30 03:44:57;;;;;;;5.25;2.58;;;14.70;57.50;;;;;;5011703;28;20091;-66
2021/05/30 03:47:23;;;;;;;4.88;3.13;;;14.70;57.60;;;;;;5012948;28;20032;-66
2021/05/30 03:49:48;;;;;;;3.40;2.47;;;14.70;57.70;;;;;;5012881;28;20034;-67
2021/05/30 03:52:14;;;;;;;5.55;2.63;;;14.70;57.90;;;;;;5012659;28;20040;-67
2021/05/30 03:54:40;;;;;;;9.55;3.20;;;14.80;57.90;;;;;;5014482;28;20034;-66
2021/05/30 03:57:06;;;;;;;4.95;3.28;;;14.80;58.00;;;;;;5016651;28;20497;-66
2021/05/30 03:59:32;;;;;;;5.22;3.10;;;14.80;58.10;;;;;;5016373;28;20480;-67
2021/05/30 04:01:58;;;;;;;3.55;2.47;;;14.80;58.20;;;;;;5016427;28;20082;-66
2021/05/30 04:04:24;;;;;;;6.18;3.08;;;14.80;58.20;;;;;;5016518;28;20026;-66
2021/05/30 04:06:49;;;;;;;7.15;3.25;;;14.70;58.20;;;;;;5016576;28;20084;-66
2021/05/30 04:09:15;;;;;;;3.55;2.58;;;14.80;58.20;;;;;;5016479;28;20053;-66
2021/05/30 04:11:41;;;;;;;6.00;3.22;;;14.80;58.00;;;;;;5016164;28;20037;-66
2021/05/30 04:14:06;;;;;;;3.65;2.47;;;14.80;58.00;;;;;;5016318;28;20472;-66
2021/05/30 04:16:32;;;;;;;4.57;2.80;;;14.80;58.20;;;;;;5015093;28;20041;-67
2021/05/30 04:18:58;;;;;;;3.42;2.33;;;14.80;58.10;;;;;;5016275;28;20026;-66
2021/05/30 04:21:24;;;;;;;8.35;3.40;;;14.80;58.10;;;;;;5016017;28;20093;-66
2021/05/30 04:23:50;;;;;;;9.35;2.80;;;14.80;58.20;;;;;;5016398;28;20433;-66
2021/05/30 04:26:15;;;;;;;5.60;3.10;;;14.90;58.20;;;;;;5016146;28;20022;-67
2021/05/30 04:28:44;;;;;;;3.80;2.45;;;14.90;58.30;;;;;;5016070;28;20472;-66
2021/05/30 04:31:10;;;;;;;3.55;2.60;;;14.90;58.20;;;;;;5015999;28;20026;-66
2021/05/30 04:33:36;;;;;;;4.05;2.53;;;14.90;58.20;;;;;;5016011;28;20033;-67
2021/05/30 04:36:02;;;;;;;4.47;2.88;;;14.90;58.10;;;;;;5015998;28;20021;-67
2021/05/30 04:38:28;;;;;;;3.58;2.40;;;14.90;58.20;;;;;;5015574;28;20484;-66
2021/05/30 04:40:54;;;;;;;3.00;2.67;;;15.00;58.20;;;;;;5015908;28;20104;-66
2021/05/30 04:43:19;;;;;;;3.85;2.83;;;15.00;58.10;;;;;;5015782;28;20384;-67
2021/05/30 04:45:45;;;;;;;4.05;2.50;;;15.10;58.00;;;;;;5015772;28;20076;-66
2021/05/30 04:48:11;;;;;;;5.38;2.47;;;15.10;58.00;;;;;;5015710;28;20034;-66
2021/05/30 04:50:38;;;;;;;4.55;2.80;;;15.10;58.00;;;;;;5015444;28;20049;-66
2021/05/30 04:53:04;;;;;;;3.95;2.47;;;15.10;57.90;;;;;;5015576;28;20050;-66
2021/05/30 04:55:29;;;;;;;5.38;2.70;;;15.20;58.00;;;;;;5015406;28;20057;-66
2021/05/30 04:57:55;;;;;;;6.03;2.47;;;15.20;58.00;;;;;;5015319;28;20021;-67
2021/05/30 05:00:21;;;;;;;12.75;3.13;;;15.20;57.90;;;;;;5015359;28;20525;-66
2021/05/30 05:02:47;;;;;;;4.07;2.33;;;15.30;57.90;;;;;;5015413;28;20060;-67
2021/05/30 05:05:13;;;;;;;5.38;3.13;;;15.30;57.70;;;;;;5015288;28;20379;-66
2021/05/30 05:07:40;;;;;;;4.10;3.10;;;15.40;57.60;;;;;;5014394;28;20030;-66
2021/05/30 05:10:08;;;;;;;3.70;2.65;;;15.40;57.30;;;;;;5015283;28;20025;-67
2021/05/30 05:12:34;;;;;;;3.38;2.40;;;15.40;57.20;;;;;;5015268;28;20025;-67
2021/05/30 05:15:00;;;;;;;4.00;2.60;;;15.40;57.20;;;;;;5015270;28;20075;-67
2021/05/30 05:17:26;;;;;;;4.93;2.70;;;15.40;57.10;;;;;;5015002;28;20038;-67
2021/05/30 05:19:52;;;;;;;5.72;2.42;;;15.40;56.90;;;;;;5014824;28;20041;-67
2021/05/30 05:22:18;;;;;;;5.63;2.67;;;15.40;56.90;;;;;;5014807;28;20037;-66
2021/05/30 05:24:44;;;;;;;7.10;3.22;;;15.40;56.90;;;;;;5015191;28;20018;-67
2021/05/30 05:27:10;;;;;;;6.60;2.97;;;15.40;56.90;;;;;;5014926;28;20064;-67
2021/05/30 05:29:37;;;;;;;6.15;3.40;;;15.40;57.00;;;;;;5014926;28;20479;-67
2021/05/30 05:32:03;;;;;;;3.50;2.60;;;15.40;57.10;;;;;;5014805;28;20026;-67
2021/05/30 05:34:29;;;;;;;4.97;2.97;;;15.40;56.80;;;;;;5014824;28;20388;-67
2021/05/30 05:36:55;;;;;;;5.45;3.13;;;15.40;56.70;;;;;;5014704;28;20021;-66
2021/05/30 05:39:21;;;;;;;5.07;3.03;;;15.50;56.60;;;;;;5014755;28;20101;-67
2021/05/30 05:41:49;;;;;;;5.18;3.17;;;15.50;56.50;;;;;;5013479;28;20368;-66
2021/05/30 05:44:15;;;;;;;7.57;2.90;;;15.50;56.30;;;;;;5014646;28;20018;-67
2021/05/30 05:46:41;;;;;;;3.60;2.47;;;15.60;57.00;;;;;;5015217;28;20109;-67
2021/05/30 05:49:07;;;;;;;5.65;3.45;;;15.60;56.50;;;;;;5033218;28;20068;-67
2021/05/30 05:51:32;;;;;;;5.13;2.95;;;15.60;56.30;;;;;;5014560;28;20496;-66
2021/05/30 05:53:58;;;;;;;3.45;2.80;;;15.70;56.20;;;;;;5014694;28;20554;-67
2021/05/30 05:56:24;;;;;;;8.38;3.85;;;15.70;55.80;;;;;;5014281;28;20037;-66
2021/05/30 05:58:51;;;;;;;6.20;3.30;;;15.80;55.80;;;;;;5014471;28;20022;-67
2021/05/30 06:01:16;;;;;;;4.10;3.20;;;15.90;55.60;;;;;;5014443;28;20488;-66
2021/05/30 06:03:42;;;;;;;5.53;3.55;;;16.00;55.30;;;;;;5014403;28;20053;-67
2021/05/30 06:06:08;;;;;;;4.95;3.63;;;16.10;54.80;;;;;;5014328;28;20021;-66
2021/05/30 06:08:34;;;;;;;5.68;3.30;;;16.20;54.20;;;;;;5014163;28;20022;-66
2021/05/30 06:11:00;;;;;;;6.63;3.80;;;16.30;53.10;;;;;;5022538;28;20017;-67
2021/05/30 06:13:26;;;;;;;7.30;3.47;;;16.40;53.00;;;;;;5030170;28;20504;-63
2021/05/30 06:15:51;;;;;;;6.35;3.63;;;16.60;52.90;;;;;;5021222;28;20399;-63
2021/05/30 06:18:18;;;;;;;5.95;3.38;;;16.70;52.50;;;;;;5033291;28;20057;-63
2021/05/30 06:20:46;;;;;;;6.68;3.63;;;16.80;51.70;;;;;;5033839;28;20375;-63
2021/05/30 06:23:13;;;;;;;4.13;3.55;;;16.90;52.00;;;;;;5024267;28;20025;-63
2021/05/30 06:25:41;;;;;;;9.10;4.15;;;17.00;51.20;;;;;;5017734;28;20022;-63
2021/05/30 06:28:06;;;;;;;5.57;3.25;;;17.10;50.80;;;;;;5021113;28;20029;-63
2021/05/30 06:30:35;;;;;;;4.63;3.50;;;17.10;47.50;;;;;;5028387;28;20025;-63
2021/05/30 06:33:02;;;;;;;14.88;4.35;;;17.20;46.10;;;;;;5033336;28;20041;-63
2021/05/30 06:35:29;;;;;;;7.75;3.28;;;17.40;46.00;;;;;;5033477;28;20032;-63
2021/05/30 06:37:55;;;;;;;4.82;3.30;;;17.50;45.60;;;;;;5021047;28;20383;-63
2021/05/30 06:40:21;;;;;;;4.50;3.67;;;17.70;47.40;;;;;;5027643;28;20044;-63
2021/05/30 06:42:49;;;;;;;7.80;4.35;;;17.90;47.80;;;;;;5030406;28;20076;-68
2021/05/30 06:45:15;;;;;;;5.20;3.88;;;18.10;48.20;;;;;;5020678;28;20108;-69
2021/05/30 06:47:41;;;;;;;9.02;4.30;;;18.20;48.50;;;;;;5018935;28;20038;-69
2021/05/30 06:50:07;;;;;;;8.05;5.38;;;18.30;47.70;;;;;;5013217;28;20435;-69
2021/05/30 06:52:33;;;;;;;8.98;4.35;;;18.30;47.00;;;;;;5013634;28;20387;-68
2021/05/30 06:54:59;;;;;;;5.95;4.28;;;18.30;47.30;;;;;;5012252;28;20117;-69
2021/05/30 06:57:25;;;;;;;8.27;4.90;;;18.30;47.10;;;;;;5013321;28;20072;-69
2021/05/30 06:59:51;;;;;;;4.88;3.97;;;18.20;47.10;;;;;;5013458;28;20037;-69
2021/05/30 07:02:17;;;;;;;5.38;3.58;;;18.20;47.30;;;;;;5014214;28;20483;-69
2021/05/30 07:04:43;;;;;;;4.32;3.40;;;18.20;47.10;;;;;;5013276;28;20029;-69
2021/05/30 07:07:09;;;;;;;12.18;3.67;;;18.20;47.00;;;;;;5013426;28;20092;-69
2021/05/30 07:09:35;;;;;;;6.28;3.60;;;18.30;45.80;;;;;;5013234;28;20072;-69
2021/05/30 07:12:01;;;;;;;5.07;3.30;;;18.20;45.70;;;;;;5013311;28;20026;-69
2021/05/30 07:14:27;;;;;;;4.28;3.42;;;18.30;45.30;;;;;;5013163;28;20480;-69
2021/05/30 07:16:55;;;;;;;6.50;3.67;;;18.30;44.90;;;;;;5012801;28;20026;-69
2021/05/30 07:19:21;;;;;;;7.18;2.92;;;18.30;44.20;;;;;;5013068;28;20026;-69
2021/05/30 07:21:47;;;;;;;4.38;2.70;;;18.40;44.40;;;;;;5013062;28;20030;-69
2021/05/30 07:24:13;;;;;;;4.63;2.97;;;18.40;42.80;;;;;;5013266;28;20029;-69
2021/05/30 07:26:40;;;;;;;3.65;2.38;;;18.40;42.30;;;;;;5013127;28;20435;-69
2021/05/30 07:29:07;;;;;;;5.15;2.15;;;18.40;41.50;;;;;;5028365;28;20018;-69
2021/05/30 07:31:33;;;;;;;5.20;2.58;;;18.40;40.70;;;;;;5016975;28;20022;-69
2021/05/30 07:33:59;;;;;;;3.95;2.60;;;18.40;39.30;;;;;;5016101;28;20376;-69
2021/05/30 07:36:28;;;;;;;2.33;2.10;;;18.50;39.60;;;;;;5031437;28;20022;-69
2021/05/30 07:38:54;;;;;;;3.58;2.60;;;18.50;39.50;;;;;;5021111;28;20033;-69
2021/05/30 07:41:19;;;;;;;4.72;2.50;;;18.50;37.70;;;;;;5028160;28;20391;-69
2021/05/30 07:43:45;;;;;;;4.13;2.15;;;18.50;37.00;;;;;;5049527;28;20029;-69
2021/05/30 07:46:11;;;;;;;3.67;2.15;;;18.60;37.50;;;;;;5031500;28;20029;-69
2021/05/30 07:48:38;;;;;;;3.92;2.13;;;18.60;37.30;;;;;;5049300;28;20056;-69
2021/05/30 07:51:04;;;;;;;4.32;2.13;;;18.70;35.60;;;;;;5045544;28;20433;-69
2021/05/30 07:53:30;;;;;;;2.15;1.63;;;18.70;36.70;;;;;;5029526;28;20049;-69
2021/05/30 07:55:56;;;;;;;4.78;1.92;;;18.80;36.70;;;;;;5050669;28;20052;-69
2021/05/30 07:58:22;;;;;;;2.72;2.00;;;18.80;35.60;;;;;;5041043;28;20033;-69
2021/05/30 08:00:49;;;;;;;2.75;2.20;;;18.80;35.50;;;;;;5047545;28;20102;-68
2021/05/30 08:03:14;;;;;;;3.78;2.00;;;18.80;35.00;;;;;;5040852;28;20379;-68
2021/05/30 08:05:40;;;;;;;2.60;1.98;;;18.80;33.50;;;;;;5038918;28;20025;-69
2021/05/30 08:08:06;;;;;;;3.30;2.10;;;18.80;32.90;;;;;;5052389;28;20037;-69
2021/05/30 08:10:32;;;;;;;2.58;1.90;;;18.80;32.40;;;;;;5042255;28;20021;-69
2021/05/30 08:12:58;;;;;;;3.10;1.63;;;18.80;32.50;;;;;;5045953;28;20033;-68
2021/05/30 08:15:24;;;;;;;4.78;2.20;;;18.90;33.70;;;;;;5049523;28;20482;-69
2021/05/30 08:17:52;;;;;;;3.50;2.13;;;18.90;33.10;;;;;;5037305;28;20041;-69
2021/05/30 08:20:19;;;;;;;2.97;1.77;;;19.00;33.10;;;;;;5034031;28;20104;-69
2021/05/30 08:22:46;;;;;;;3.97;2.28;;;19.10;33.20;;;;;;5046642;28;20026;-69
2021/05/30 08:25:12;;;;;;;6.22;2.10;;;19.20;32.70;;;;;;5039546;28;20067;-69
2021/05/30 08:27:38;;;;;;;2.97;1.65;;;19.30;32.00;;;;;;5040342;28;20448;-69
2021/05/30 08:30:06;;;;;;;2.55;1.77;;;19.50;32.30;;;;;;5052101;28;20029;-69
2021/05/30 08:32:32;;;;;;;3.00;1.73;;;19.70;31.70;;;;;;5030072;28;20021;-69
2021/05/30 08:34:58;;;;;;;4.80;2.60;;;19.80;31.90;;;;;;5045465;28;20091;-68
2021/05/30 08:37:24;;;;;;;3.70;2.13;;;19.90;31.10;;;;;;5027926;28;20030;-68
2021/05/30 08:39:51;;;;;;;3.05;2.10;;;19.90;30.90;;;;;;5047961;28;20036;-69
2021/05/30 08:42:21;;;;;;;3.78;2.30;;;19.90;31.20;;;;;;5033740;28;20063;-69
2021/05/30 08:44:50;;;;;;;2.50;2.03;;;19.80;31.30;;;;;;5030795;28;20048;-69
2021/05/30 08:47:22;;;;;;;2.58;1.70;;;19.80;32.00;;;;;;5035194;28;20029;-69
2021/05/30 08:49:48;;;;;;;5.10;2.95;;;19.70;32.50;;;;;;5034929;28;20030;-69
2021/05/30 08:52:15;;;;;;;2.85;2.08;;;19.60;32.40;;;;;;5034935;28;20032;-69
2021/05/30 08:54:40;;;;;;;2.95;1.85;;;19.60;31.80;;;;;;5024692;28;20025;-69
2021/05/30 08:57:06;;;;;;;2.38;1.50;;;19.60;32.50;;;;;;5035031;28;20383;-69
2021/05/30 08:59:34;;;;;;;2.30;1.60;;;19.80;32.30;;;;;;5033724;28;20030;-69
2021/05/30 09:02:13;;;;;;;3.17;1.75;;;19.90;31.70;;;;;;5033811;28;20364;-69
2021/05/30 09:04:43;;;;;;;2.85;1.52;;;20.10;30.30;;;;;;5035073;28;20017;-69
2021/05/30 09:07:09;;;;;;;3.45;1.63;;;20.20;30.20;;;;;;5033839;28;20029;-69
2021/05/30 09:09:41;;;;;;;2.90;1.75;;;20.40;28.60;;;;;;5035003;28;20026;-69
2021/05/30 09:12:17;;;;;;;4.25;1.60;;;20.40;28.20;;;;;;5034891;28;20026;-69
2021/05/30 09:14:46;;;;;;;2.45;1.58;;;20.50;28.90;;;;;;5034856;28;20029;-69
2021/05/30 09:17:12;;;;;;;2.35;1.63;;;20.60;28.80;;;;;;5034942;28;20025;-69
2021/05/30 09:19:45;;;;;;;2.83;1.70;;;20.70;28.50;;;;;;5034981;28;20021;-69
2021/05/30 09:22:30;;;;;;;1.67;1.42;;;20.90;28.00;;;;;;5034901;28;20418;-69
2021/05/30 09:25:10;;;;;;;2.42;1.27;;;21.10;29.40;;;;;;5016809;28;20107;-69
2021/05/30 09:27:45;;;;;;;1.95;1.42;;;21.30;28.50;;;;;;5015030;28;20356;-69
2021/05/30 09:30:36;;;;;;;3.65;1.70;;;21.50;28.60;;;;;;5015067;28;20037;-69
2021/05/30 09:33:23;;;;;;;2.30;1.40;;;21.70;28.40;;;;;;5014814;28;20610;-69
2021/05/30 09:35:54;;;;;;;2.00;1.50;;;21.90;28.50;;;;;;5013645;28;20030;-69
2021/05/30 09:38:23;;;;;;;2.75;1.52;;;22.10;27.40;;;;;;5014742;28;20032;-69
2021/05/30 09:40:53;;;;;;;1.83;1.45;;;22.30;27.40;;;;;;5014762;28;20384;-69
2021/05/30 09:43:26;;;;;;;3.25;1.75;;;22.40;26.90;;;;;;5014658;28;20071;-69
2021/05/30 09:46:01;;;;;;;2.30;1.70;;;22.60;27.30;;;;;;5014697;28;20026;-69
2021/05/30 09:48:27;;;;;;;3.42;1.60;;;22.70;26.80;;;;;;5021328;28;20034;-69
2021/05/30 09:51:07;;;;;;;3.00;1.80;;;22.80;26.60;;;;;;5034139;28;20091;-69
2021/05/30 09:53:51;;;;;;;2.10;1.42;;;22.90;26.20;;;;;;5032480;28;20176;-69
2021/05/30 09:56:35;;;;;;;1.88;1.60;;;22.90;26.30;;;;;;5034126;28;20025;-69
2021/05/30 09:59:06;;;;;;;2.45;1.70;;;22.80;26.30;;;;;;5032841;28;20029;-70
2021/05/30 10:02:00;;;;;;;4.15;2.08;;;22.80;26.80;;;;;;5033731;28;20040;-70
2021/05/30 10:04:31;;;;;;;2.33;1.70;;;22.70;26.20;;;;;;5033899;28;20423;-69
2021/05/30 10:06:58;;;;;;;2.47;1.83;;;22.70;26.80;;;;;;5051777;28;20032;-70
2021/05/30 10:09:26;;;;;;;3.35;1.95;;;22.70;26.60;;;;;;5034538;28;20155;-69
2021/05/30 10:11:53;;;;;;;2.65;1.63;;;22.70;26.40;;;;;;5033183;28;20029;-69
2021/05/30 10:14:19;;;;;;;1.95;1.42;;;22.80;26.50;;;;;;5031095;28;20026;-70
2021/05/30 10:16:45;;;;;;;4.35;1.50;;;22.90;26.70;;;;;;5014956;28;20021;-70
2021/05/30 10:19:16;;;;;;;1.85;1.50;;;23.10;26.80;;;;;;5020046;28;20100;-69
2021/05/30 10:21:46;;;;;;;2.00;1.60;;;23.30;26.30;;;;;;5013940;28;20026;-69
2021/05/30 10:24:14;;;;;;;2.47;1.85;;;23.50;26.40;;;;;;5019049;28;20028;-70
2021/05/30 10:26:40;;;;;;;2.95;2.10;;;23.60;25.50;;;;;;5033574;28;20104;-69
2021/05/30 10:29:16;;;;;;;6.00;2.13;;;23.70;25.40;;;;;;5033532;28;20097;-70
2021/05/30 10:31:45;;;;;;;4.25;2.10;;;23.70;25.30;;;;;;5030445;28;20408;-70
2021/05/30 10:34:11;;;;;;;3.10;2.15;;;23.80;24.80;;;;;;5020432;28;20495;-69
2021/05/30 10:36:42;;;;;;;3.17;2.22;;;23.70;24.70;;;;;;5013435;28;20167;-69
2021/05/30 10:39:32;;;;;;;2.78;2.15;;;23.70;25.10;;;;;;5013510;28;20021;-69
2021/05/30 10:42:17;;;;;;;3.58;2.20;;;23.80;25.80;;;;;;5020774;28;20419;-69
2021/05/30 10:44:58;;;;;;;3.70;2.20;;;23.80;25.60;;;;;;5012345;28;20022;-69
2021/05/30 10:47:42;;;;;;;3.20;2.08;;;23.90;25.60;;;;;;5013636;28;20079;-69
2021/05/30 10:50:15;;;;;;;3.05;2.13;;;24.00;26.00;;;;;;5016987;28;20028;-69
2021/05/30 10:52:43;;;;;;;3.83;2.10;;;24.10;25.50;;;;;;5031704;28;20042;-70
2021/05/30 10:55:16;;;;;;;5.13;2.13;;;24.20;24.80;;;;;;5031653;28;20079;-69
2021/05/30 10:57:47;;;;;;;5.43;2.40;;;24.10;24.00;;;;;;5022947;28;20071;-69
2021/05/30 11:00:19;;;;;;;3.67;2.13;;;24.10;24.30;;;;;;5032462;28;20053;-69
2021/05/30 11:03:06;;;;;;;3.38;2.33;;;24.20;24.90;;;;;;5033201;28;20018;-69
2021/05/30 11:05:38;;;;;;;3.63;2.05;;;24.20;25.10;;;;;;5015568;28;20018;-69
2021/05/30 11:08:04;;;;;;;2.55;1.95;;;24.40;25.10;;;;;;5028599;28;20430;-69
2021/05/30 11:10:30;;;;;;;3.03;2.00;;;24.50;24.30;;;;;;5013358;28;20026;-69
2021/05/30 11:12:58;;;;;;;11.02;2.50;;;24.60;24.70;;;;;;5013195;28;20188;-69
2021/05/30 11:15:28;;;;;;;2.67;1.90;;;24.80;24.50;;;;;;5011825;28;20079;-70
2021/05/30 11:17:59;;;;;;;2.95;2.30;;;24.80;24.20;;;;;;5013069;28;20706;-70
2021/05/30 11:20:36;;;;;;;2.53;1.80;;;24.90;23.00;;;;;;5023611;28;20021;-69
2021/05/30 11:23:04;;;;;;;3.50;2.20;;;24.90;23.50;;;;;;5022639;28;20045;-69
2021/05/30 11:25:45;;;;;;;2.92;2.05;;;24.90;24.00;;;;;;5035664;28;20474;-69
2021/05/30 11:28:13;;;;;;;3.17;2.28;;;25.00;23.60;;;;;;5052009;28;20059;-69
2021/05/30 11:30:41;;;;;;;3.22;2.25;;;24.90;23.30;;;;;;5037084;28;20096;-69
2021/05/30 11:33:08;;;;;;;7.07;2.20;;;24.90;23.40;;;;;;5044372;28;20032;-69
2021/05/30 11:35:35;;;;;;;2.97;2.13;;;24.90;23.80;;;;;;5044429;28;20021;-69
2021/05/30 11:38:01;;;;;;;3.42;2.20;;;25.00;24.00;;;;;;5046194;28;20437;-69
2021/05/30 11:40:27;;;;;;;3.63;2.58;;;25.10;24.20;;;;;;5035976;28;20100;-69
2021/05/30 11:42:53;;;;;;;8.82;2.83;;;25.20;23.90;;;;;;5046206;28;20021;-67
2021/05/30 11:45:36;;;;;;;3.15;2.63;;;25.30;23.00;;;;;;5042473;28;20028;-70
2021/05/30 11:48:07;;;;;;;2.65;2.00;;;25.30;23.30;;;;;;5036647;28;20033;-69
2021/05/30 11:50:36;;;;;;;3.00;2.40;;;25.30;23.50;;;;;;5020027;28;20045;-69
2021/05/30 11:53:23;;;;;;;4.03;2.42;;;25.30;22.80;;;;;;5041432;28;20404;-69
2021/05/30 11:55:49;;;;;;;2.33;2.08;;;25.30;22.80;;;;;;5019768;28;20025;-69
2021/05/30 11:58:15;;;;;;;3.35;2.20;;;25.30;22.70;;;;;;5046334;28;20035;-69
2021/05/30 12:00:40;;;;;;;3.55;2.30;;;25.30;22.80;;;;;;5037047;28;20009;-69
2021/05/30 12:03:11;;;;;;;4.38;2.30;;;25.20;22.40;;;;;;5044119;28;20017;-69
2021/05/30 12:05:40;;;;;;;3.05;2.00;;;25.30;23.10;;;;;;5045160;28;20140;-69
2021/05/30 12:08:17;;;;;;;3.15;1.92;;;25.20;22.30;;;;;;5035967;28;20032;-69
2021/05/30 12:10:50;;;;;;;2.67;2.10;;;25.20;22.60;;;;;;5022382;28;20021;-69
2021/05/30 12:13:28;;;;;;;2.35;1.70;;;25.20;22.30;;;;;;5036489;28;20029;-69
2021/05/30 12:15:55;;;;;;;1.88;1.75;;;25.30;22.70;;;;;;5014197;28;20036;-69
2021/05/30 12:18:22;;;;;;;2.13;1.63;;;25.40;22.00;;;;;;5016331;28;20365;-69
2021/05/30 12:20:48;;;;;;;3.40;1.90;;;25.50;22.40;;;;;;5016306;28;20072;-69
2021/05/30 12:23:22;;;;;;;2.63;2.20;;;25.60;22.60;;;;;;5019582;28;20036;-67
2021/05/30 12:26:03;;;;;;;12.05;8.82;;;25.70;22.50;;;;;;5035687;28;20026;-69
2021/05/30 12:28:33;;;;;;;2.88;1.85;;;25.70;22.70;;;;;;5036019;28;20486;-69
2021/05/30 12:31:04;;;;;;;3.97;2.30;;;25.80;22.60;;;;;;5036003;28;20056;-67
2021/05/30 12:33:50;;;;;;;2.55;2.15;;;25.80;22.50;;;;;;5034608;28;20025;-69
2021/05/30 12:36:29;;;;;;;3.47;2.20;;;25.70;22.40;;;;;;5035756;28;20032;-67
2021/05/30 12:39:08;;;;;;;3.08;2.10;;;25.50;22.00;;;;;;5025837;28;20030;-67
2021/05/30 12:41:40;;;;;;;3.38;2.10;;;25.30;22.10;;;;;;5014746;28;20053;-69
2021/05/30 12:44:17;;;;;;;3.78;2.25;;;25.10;21.90;;;;;;5014732;28;20026;-67
2021/05/30 12:46:53;;;;;;;2.63;1.98;;;24.80;22.10;;;;;;5015664;28;20041;-67
2021/05/30 12:49:20;;;;;;;3.45;2.15;;;24.50;22.40;;;;;;5014523;28;20026;-67
2021/05/30 12:52:13;;;;;;;2.53;1.75;;;24.40;22.70;;;;;;5014458;28;20391;-67